Adrian, Texas
Current Conditions -  °F | °C
As of 12:15 AM on Friday 19 Dec 2014 (Local Time) from KHRX Reporting Station
Overcast Overcast  
Wind Chill: 37°   Ceiling: 500
Heat Index: 37°   Visibility: 7mi
Dew Point: 36°   Wind: 0mph
Humidity: 95%   Direction: NA
Pressure: 30.16"   Gusts: NA
Location:  35.27°N, 102.67°W
Report Text: KHRX 190615Z AUTO 00000KT 7SM OVC005 03/02 A3016 RMK AO2 T00280020
Loading
Personal Weather Stations






























Interactive Weather Map New forecast layout! Learn more

10-Day Weather Forecast

Advertisements
Track Severe Weather on mobile